sensor_id;sensor_type;location;lat;lon;timestamp;P1;durP1;ratioP1;P2;durP2;ratioP2
18917;SDS011;9591;52.742;13.650;2023-07-29T00:00:23;5.50;;;3.80;;
18917;SDS011;9591;52.742;13.650;2023-07-29T00:03:15;10.80;;;4.33;;
18917;SDS011;9591;52.742;13.650;2023-07-29T00:06:02;4.63;;;3.37;;
18917;SDS011;9591;52.742;13.650;2023-07-29T00:08:50;13.50;;;4.30;;
18917;SDS011;9591;52.742;13.650;2023-07-29T00:11:38;9.37;;;4.17;;
18917;SDS011;9591;52.742;13.650;2023-07-29T00:14:26;7.50;;;3.30;;
18917;SDS011;9591;52.742;13.650;2023-07-29T00:17:13;8.93;;;4.07;;
18917;SDS011;9591;52.742;13.650;2023-07-29T00:20:01;6.10;;;3.33;;
18917;SDS011;9591;52.742;13.650;2023-07-29T00:22:51;14.30;;;3.90;;
18917;SDS011;9591;52.742;13.650;2023-07-29T00:25:39;8.80;;;3.97;;
18917;SDS011;9591;52.742;13.650;2023-07-29T00:28:26;14.87;;;3.93;;
18917;SDS011;9591;52.742;13.650;2023-07-29T00:31:13;9.87;;;3.47;;
18917;SDS011;9591;52.742;13.650;2023-07-29T00:34:00;6.50;;;3.50;;
18917;SDS011;9591;52.742;13.650;2023-07-29T00:36:48;8.13;;;3.70;;
18917;SDS011;9591;52.742;13.650;2023-07-29T00:39:36;9.93;;;3.90;;
18917;SDS011;9591;52.742;13.650;2023-07-29T00:42:23;5.63;;;3.70;;
18917;SDS011;9591;52.742;13.650;2023-07-29T00:45:10;8.10;;;3.90;;
18917;SDS011;9591;52.742;13.650;2023-07-29T00:47:57;12.43;;;4.63;;
18917;SDS011;9591;52.742;13.650;2023-07-29T00:50:44;8.57;;;3.97;;
18917;SDS011;9591;52.742;13.650;2023-07-29T00:53:33;6.00;;;4.13;;
18917;SDS011;9591;52.742;13.650;2023-07-29T00:56:20;5.73;;;3.90;;
18917;SDS011;9591;52.742;13.650;2023-07-29T00:59:07;9.50;;;4.07;;
18917;SDS011;9591;52.742;13.650;2023-07-29T01:01:55;5.87;;;3.90;;
18917;SDS011;9591;52.742;13.650;2023-07-29T01:04:45;7.57;;;3.67;;
18917;SDS011;9591;52.742;13.650;2023-07-29T01:07:41;16.10;;;3.83;;
18917;SDS011;9591;52.742;13.650;2023-07-29T01:10:39;15.03;;;4.03;;
18917;SDS011;9591;52.742;13.650;2023-07-29T01:13:37;15.10;;;4.23;;
18917;SDS011;9591;52.742;13.650;2023-07-29T01:16:33;8.23;;;3.97;;
18917;SDS011;9591;52.742;13.650;2023-07-29T01:19:34;5.33;;;3.87;;
18917;SDS011;9591;52.742;13.650;2023-07-29T01:22:31;6.70;;;3.50;;
18917;SDS011;9591;52.742;13.650;2023-07-29T01:25:20;8.13;;;3.80;;
18917;SDS011;9591;52.742;13.650;2023-07-29T01:28:07;6.57;;;3.90;;
18917;SDS011;9591;52.742;13.650;2023-07-29T01:30:57;15.47;;;3.60;;
18917;SDS011;9591;52.742;13.650;2023-07-29T01:33:59;7.37;;;4.00;;
18917;SDS011;9591;52.742;13.650;2023-07-29T01:36:52;10.63;;;4.00;;
18917;SDS011;9591;52.742;13.650;2023-07-29T01:39:46;6.57;;;3.93;;
18917;SDS011;9591;52.742;13.650;2023-07-29T01:42:37;6.77;;;4.07;;
18917;SDS011;9591;52.742;13.650;2023-07-29T01:45:24;11.37;;;4.10;;
18917;SDS011;9591;52.742;13.650;2023-07-29T01:48:12;12.60;;;4.10;;
18917;SDS011;9591;52.742;13.650;2023-07-29T01:50:59;10.13;;;3.93;;
18917;SDS011;9591;52.742;13.650;2023-07-29T01:53:46;8.37;;;4.27;;
18917;SDS011;9591;52.742;13.650;2023-07-29T01:56:33;10.03;;;4.63;;
18917;SDS011;9591;52.742;13.650;2023-07-29T01:59:21;13.77;;;4.63;;
18917;SDS011;9591;52.742;13.650;2023-07-29T02:02:08;9.50;;;4.60;;
18917;SDS011;9591;52.742;13.650;2023-07-29T02:04:55;12.07;;;4.93;;
18917;SDS011;9591;52.742;13.650;2023-07-29T02:07:41;11.00;;;4.53;;
18917;SDS011;9591;52.742;13.650;2023-07-29T02:10:28;10.93;;;5.20;;
18917;SDS011;9591;52.742;13.650;2023-07-29T02:13:15;12.03;;;5.67;;
18917;SDS011;9591;52.742;13.650;2023-07-29T02:16:04;28.80;;;6.13;;
18917;SDS011;9591;52.742;13.650;2023-07-29T02:18:50;17.00;;;6.03;;
18917;SDS011;9591;52.742;13.650;2023-07-29T02:21:41;27.50;;;7.70;;
18917;SDS011;9591;52.742;13.650;2023-07-29T02:24:27;24.77;;;6.43;;
18917;SDS011;9591;52.742;13.650;2023-07-29T02:27:14;16.77;;;5.80;;
18917;SDS011;9591;52.742;13.650;2023-07-29T02:30:01;49.97;;;7.60;;
18917;SDS011;9591;52.742;13.650;2023-07-29T02:32:50;25.47;;;7.47;;
18917;SDS011;9591;52.742;13.650;2023-07-29T02:35:37;23.87;;;6.97;;
18917;SDS011;9591;52.742;13.650;2023-07-29T02:38:24;54.77;;;7.43;;
18917;SDS011;9591;52.742;13.650;2023-07-29T02:41:11;54.40;;;7.20;;
18917;SDS011;9591;52.742;13.650;2023-07-29T02:43:58;47.60;;;7.60;;
18917;SDS011;9591;52.742;13.650;2023-07-29T02:46:45;35.33;;;7.20;;
18917;SDS011;9591;52.742;13.650;2023-07-29T02:49:33;54.47;;;7.17;;
18917;SDS011;9591;52.742;13.650;2023-07-29T02:52:20;37.80;;;6.00;;
18917;SDS011;9591;52.742;13.650;2023-07-29T02:55:07;40.50;;;6.37;;
18917;SDS011;9591;52.742;13.650;2023-07-29T02:57:54;10.00;;;4.93;;
18917;SDS011;9591;52.742;13.650;2023-07-29T03:00:41;19.07;;;6.13;;
18917;SDS011;9591;52.742;13.650;2023-07-29T03:03:29;15.53;;;5.80;;
18917;SDS011;9591;52.742;13.650;2023-07-29T03:06:18;15.43;;;5.70;;
18917;SDS011;9591;52.742;13.650;2023-07-29T03:09:05;7.93;;;4.87;;
18917;SDS011;9591;52.742;13.650;2023-07-29T03:11:52;7.60;;;5.00;;
18917;SDS011;9591;52.742;13.650;2023-07-29T03:14:39;9.27;;;5.10;;
18917;SDS011;9591;52.742;13.650;2023-07-29T03:17:26;9.87;;;5.40;;
18917;SDS011;9591;52.742;13.650;2023-07-29T03:20:13;8.90;;;5.57;;
18917;SDS011;9591;52.742;13.650;2023-07-29T03:23:02;12.37;;;6.00;;
18917;SDS011;9591;52.742;13.650;2023-07-29T03:25:49;9.70;;;5.43;;
18917;SDS011;9591;52.742;13.650;2023-07-29T03:28:37;11.03;;;5.20;;
18917;SDS011;9591;52.742;13.650;2023-07-29T03:31:24;12.20;;;5.27;;
18917;SDS011;9591;52.742;13.650;2023-07-29T03:34:11;10.30;;;4.93;;
18917;SDS011;9591;52.742;13.650;2023-07-29T03:37:01;8.07;;;4.77;;
18917;SDS011;9591;52.742;13.650;2023-07-29T03:39:49;7.67;;;5.40;;
18917;SDS011;9591;52.742;13.650;2023-07-29T03:42:37;14.63;;;4.90;;
18917;SDS011;9591;52.742;13.650;2023-07-29T03:45:24;8.97;;;4.60;;
18917;SDS011;9591;52.742;13.650;2023-07-29T03:48:11;7.47;;;4.90;;
18917;SDS011;9591;52.742;13.650;2023-07-29T03:50:58;8.60;;;5.13;;
18917;SDS011;9591;52.742;13.650;2023-07-29T03:53:45;12.07;;;4.33;;
18917;SDS011;9591;52.742;13.650;2023-07-29T03:56:33;11.53;;;4.73;;
18917;SDS011;9591;52.742;13.650;2023-07-29T03:59:22;12.70;;;4.93;;
18917;SDS011;9591;52.742;13.650;2023-07-29T04:02:09;8.87;;;4.73;;
18917;SDS011;9591;52.742;13.650;2023-07-29T04:04:55;6.63;;;4.43;;
18917;SDS011;9591;52.742;13.650;2023-07-29T04:07:42;7.67;;;5.33;;
18917;SDS011;9591;52.742;13.650;2023-07-29T04:10:29;7.13;;;4.93;;
18917;SDS011;9591;52.742;13.650;2023-07-29T04:13:18;7.63;;;4.53;;
18917;SDS011;9591;52.742;13.650;2023-07-29T04:16:05;8.03;;;5.00;;
18917;SDS011;9591;52.742;13.650;2023-07-29T04:18:52;16.63;;;5.53;;
18917;SDS011;9591;52.742;13.650;2023-07-29T04:21:39;8.17;;;5.03;;
18917;SDS011;9591;52.742;13.650;2023-07-29T04:24:26;10.23;;;6.53;;
18917;SDS011;9591;52.742;13.650;2023-07-29T04:27:13;9.73;;;7.00;;
18917;SDS011;9591;52.742;13.650;2023-07-29T04:30:01;9.70;;;7.37;;
18917;SDS011;9591;52.742;13.650;2023-07-29T04:32:48;8.97;;;6.47;;
18917;SDS011;9591;52.742;13.650;2023-07-29T04:35:35;15.13;;;5.17;;
18917;SDS011;9591;52.742;13.650;2023-07-29T04:38:23;10.57;;;5.10;;
18917;SDS011;9591;52.742;13.650;2023-07-29T04:41:12;10.87;;;5.07;;
18917;SDS011;9591;52.742;13.650;2023-07-29T04:43:59;8.33;;;4.80;;
18917;SDS011;9591;52.742;13.650;2023-07-29T04:46:47;10.00;;;4.50;;
18917;SDS011;9591;52.742;13.650;2023-07-29T04:49:34;6.57;;;4.83;;
18917;SDS011;9591;52.742;13.650;2023-07-29T04:52:21;9.43;;;6.47;;
18917;SDS011;9591;52.742;13.650;2023-07-29T04:55:08;13.27;;;5.80;;
18917;SDS011;9591;52.742;13.650;2023-07-29T04:57:55;8.00;;;4.63;;
18917;SDS011;9591;52.742;13.650;2023-07-29T05:00:42;15.07;;;6.00;;
18917;SDS011;9591;52.742;13.650;2023-07-29T05:03:30;12.33;;;5.60;;
18917;SDS011;9591;52.742;13.650;2023-07-29T05:06:17;12.50;;;7.00;;
18917;SDS011;9591;52.742;13.650;2023-07-29T05:09:14;12.23;;;7.97;;
18917;SDS011;9591;52.742;13.650;2023-07-29T05:12:01;11.43;;;6.50;;
18917;SDS011;9591;52.742;13.650;2023-07-29T05:14:49;8.70;;;5.03;;
18917;SDS011;9591;52.742;13.650;2023-07-29T05:17:36;12.70;;;7.60;;
18917;SDS011;9591;52.742;13.650;2023-07-29T05:20:24;11.93;;;8.00;;
18917;SDS011;9591;52.742;13.650;2023-07-29T05:23:11;12.40;;;6.40;;
18917;SDS011;9591;52.742;13.650;2023-07-29T05:25:58;9.00;;;6.07;;
18917;SDS011;9591;52.742;13.650;2023-07-29T05:28:45;10.70;;;5.70;;
18917;SDS011;9591;52.742;13.650;2023-07-29T05:31:32;11.50;;;6.20;;
18917;SDS011;9591;52.742;13.650;2023-07-29T05:34:19;8.67;;;5.60;;
18917;SDS011;9591;52.742;13.650;2023-07-29T05:37:08;9.60;;;6.10;;
18917;SDS011;9591;52.742;13.650;2023-07-29T05:39:54;10.23;;;5.20;;
18917;SDS011;9591;52.742;13.650;2023-07-29T05:42:41;12.13;;;5.60;;
18917;SDS011;9591;52.742;13.650;2023-07-29T05:45:29;8.43;;;5.63;;
18917;SDS011;9591;52.742;13.650;2023-07-29T05:48:19;11.67;;;5.37;;
18917;SDS011;9591;52.742;13.650;2023-07-29T05:51:06;9.57;;;5.27;;
18917;SDS011;9591;52.742;13.650;2023-07-29T05:53:55;11.37;;;5.27;;
18917;SDS011;9591;52.742;13.650;2023-07-29T05:56:42;7.97;;;5.40;;
18917;SDS011;9591;52.742;13.650;2023-07-29T05:59:28;8.27;;;5.03;;
18917;SDS011;9591;52.742;13.650;2023-07-29T06:02:15;11.87;;;5.10;;
18917;SDS011;9591;52.742;13.650;2023-07-29T06:05:03;7.87;;;5.10;;
18917;SDS011;9591;52.742;13.650;2023-07-29T06:07:50;8.63;;;5.63;;
18917;SDS011;9591;52.742;13.650;2023-07-29T06:10:39;9.07;;;5.20;;
18917;SDS011;9591;52.742;13.650;2023-07-29T06:13:26;11.80;;;5.83;;
18917;SDS011;9591;52.742;13.650;2023-07-29T06:16:18;11.77;;;5.60;;
18917;SDS011;9591;52.742;13.650;2023-07-29T06:19:05;8.63;;;6.10;;
18917;SDS011;9591;52.742;13.650;2023-07-29T06:21:54;8.23;;;5.63;;
18917;SDS011;9591;52.742;13.650;2023-07-29T06:24:41;10.90;;;5.73;;
18917;SDS011;9591;52.742;13.650;2023-07-29T06:27:29;7.87;;;5.50;;
18917;SDS011;9591;52.742;13.650;2023-07-29T06:30:17;12.10;;;6.03;;
18917;SDS011;9591;52.742;13.650;2023-07-29T06:33:06;8.90;;;5.80;;
18917;SDS011;9591;52.742;13.650;2023-07-29T06:35:57;12.53;;;5.93;;
18917;SDS011;9591;52.742;13.650;2023-07-29T06:38:45;8.60;;;5.90;;
18917;SDS011;9591;52.742;13.650;2023-07-29T06:41:32;9.60;;;6.37;;
18917;SDS011;9591;52.742;13.650;2023-07-29T06:44:23;8.40;;;6.10;;
18917;SDS011;9591;52.742;13.650;2023-07-29T06:47:10;11.53;;;5.60;;
18917;SDS011;9591;52.742;13.650;2023-07-29T06:49:59;8.10;;;6.00;;
18917;SDS011;9591;52.742;13.650;2023-07-29T06:52:47;8.43;;;5.63;;
18917;SDS011;9591;52.742;13.650;2023-07-29T06:55:35;8.03;;;5.43;;
18917;SDS011;9591;52.742;13.650;2023-07-29T06:58:22;9.70;;;5.03;;
18917;SDS011;9591;52.742;13.650;2023-07-29T07:01:11;7.13;;;5.50;;
18917;SDS011;9591;52.742;13.650;2023-07-29T07:03:59;8.83;;;5.23;;
18917;SDS011;9591;52.742;13.650;2023-07-29T07:06:46;5.50;;;4.80;;
18917;SDS011;9591;52.742;13.650;2023-07-29T07:09:32;13.53;;;5.37;;
18917;SDS011;9591;52.742;13.650;2023-07-29T07:12:19;10.13;;;5.37;;
18917;SDS011;9591;52.742;13.650;2023-07-29T07:15:07;9.57;;;5.53;;
18917;SDS011;9591;52.742;13.650;2023-07-29T07:17:57;12.13;;;6.03;;
18917;SDS011;9591;52.742;13.650;2023-07-29T07:20:47;8.27;;;5.10;;
18917;SDS011;9591;52.742;13.650;2023-07-29T07:23:34;10.43;;;5.57;;
18917;SDS011;9591;52.742;13.650;2023-07-29T07:26:21;8.13;;;5.53;;
18917;SDS011;9591;52.742;13.650;2023-07-29T07:29:08;8.67;;;5.00;;
18917;SDS011;9591;52.742;13.650;2023-07-29T07:31:55;8.00;;;5.67;;
18917;SDS011;9591;52.742;13.650;2023-07-29T07:34:44;6.13;;;4.50;;
18917;SDS011;9591;52.742;13.650;2023-07-29T07:37:31;8.00;;;5.73;;
18917;SDS011;9591;52.742;13.650;2023-07-29T07:40:19;5.63;;;4.20;;
18917;SDS011;9591;52.742;13.650;2023-07-29T07:43:06;5.87;;;4.40;;
18917;SDS011;9591;52.742;13.650;2023-07-29T07:45:57;6.00;;;4.37;;
18917;SDS011;9591;52.742;13.650;2023-07-29T07:48:45;8.63;;;5.03;;
18917;SDS011;9591;52.742;13.650;2023-07-29T07:51:34;11.30;;;4.63;;
18917;SDS011;9591;52.742;13.650;2023-07-29T07:54:22;6.43;;;4.70;;
18917;SDS011;9591;52.742;13.650;2023-07-29T07:57:09;6.70;;;4.73;;
18917;SDS011;9591;52.742;13.650;2023-07-29T07:59:56;7.07;;;4.90;;
18917;SDS011;9591;52.742;13.650;2023-07-29T08:02:43;8.37;;;4.73;;
18917;SDS011;9591;52.742;13.650;2023-07-29T08:05:30;7.30;;;4.40;;
18917;SDS011;9591;52.742;13.650;2023-07-29T08:08:19;14.40;;;4.90;;
18917;SDS011;9591;52.742;13.650;2023-07-29T08:11:06;6.20;;;4.90;;
18917;SDS011;9591;52.742;13.650;2023-07-29T08:13:54;8.47;;;4.50;;
18917;SDS011;9591;52.742;13.650;2023-07-29T08:16:42;6.57;;;4.33;;
18917;SDS011;9591;52.742;13.650;2023-07-29T08:19:29;5.77;;;4.87;;
18917;SDS011;9591;52.742;13.650;2023-07-29T08:22:16;7.47;;;5.07;;
18917;SDS011;9591;52.742;13.650;2023-07-29T08:25:05;10.90;;;5.13;;
18917;SDS011;9591;52.742;13.650;2023-07-29T08:27:52;5.83;;;4.20;;
18917;SDS011;9591;52.742;13.650;2023-07-29T08:30:39;9.00;;;4.70;;
18917;SDS011;9591;52.742;13.650;2023-07-29T08:33:26;8.03;;;4.20;;
18917;SDS011;9591;52.742;13.650;2023-07-29T08:36:13;6.63;;;5.23;;
18917;SDS011;9591;52.742;13.650;2023-07-29T08:39:00;6.93;;;4.50;;
18917;SDS011;9591;52.742;13.650;2023-07-29T08:41:51;8.63;;;4.70;;
18917;SDS011;9591;52.742;13.650;2023-07-29T08:44:44;6.03;;;4.70;;
18917;SDS011;9591;52.742;13.650;2023-07-29T08:47:33;4.70;;;4.03;;
18917;SDS011;9591;52.742;13.650;2023-07-29T08:50:20;8.63;;;4.80;;
18917;SDS011;9591;52.742;13.650;2023-07-29T08:53:07;5.13;;;4.20;;
18917;SDS011;9591;52.742;13.650;2023-07-29T08:55:54;4.77;;;4.20;;
18917;SDS011;9591;52.742;13.650;2023-07-29T08:58:43;8.10;;;4.60;;
18917;SDS011;9591;52.742;13.650;2023-07-29T09:01:30;6.23;;;4.43;;
18917;SDS011;9591;52.742;13.650;2023-07-29T09:04:17;6.90;;;4.57;;
18917;SDS011;9591;52.742;13.650;2023-07-29T09:07:04;6.70;;;4.70;;
18917;SDS011;9591;52.742;13.650;2023-07-29T09:09:52;6.17;;;4.47;;
18917;SDS011;9591;52.742;13.650;2023-07-29T09:12:39;6.00;;;4.57;;
18917;SDS011;9591;52.742;13.650;2023-07-29T09:15:29;6.43;;;4.50;;
18917;SDS011;9591;52.742;13.650;2023-07-29T09:18:18;6.50;;;5.17;;
18917;SDS011;9591;52.742;13.650;2023-07-29T09:21:10;7.77;;;4.30;;
18917;SDS011;9591;52.742;13.650;2023-07-29T09:24:05;9.30;;;4.70;;
18917;SDS011;9591;52.742;13.650;2023-07-29T09:26:54;5.90;;;4.60;;
18917;SDS011;9591;52.742;13.650;2023-07-29T09:29:40;6.03;;;4.77;;
18917;SDS011;9591;52.742;13.650;2023-07-29T09:32:29;5.57;;;4.40;;
18917;SDS011;9591;52.742;13.650;2023-07-29T09:35:16;8.30;;;5.07;;
18917;SDS011;9591;52.742;13.650;2023-07-29T09:38:03;7.70;;;5.60;;
18917;SDS011;9591;52.742;13.650;2023-07-29T09:40:50;5.63;;;4.97;;
18917;SDS011;9591;52.742;13.650;2023-07-29T09:43:42;7.67;;;4.63;;
18917;SDS011;9591;52.742;13.650;2023-07-29T09:46:32;7.80;;;5.07;;
18917;SDS011;9591;52.742;13.650;2023-07-29T09:49:22;6.47;;;4.70;;
18917;SDS011;9591;52.742;13.650;2023-07-29T09:52:10;4.50;;;4.10;;
18917;SDS011;9591;52.742;13.650;2023-07-29T09:54:57;5.40;;;4.60;;
18917;SDS011;9591;52.742;13.650;2023-07-29T09:57:44;6.80;;;4.47;;
18917;SDS011;9591;52.742;13.650;2023-07-29T10:00:31;5.77;;;4.63;;
18917;SDS011;9591;52.742;13.650;2023-07-29T10:03:20;7.60;;;5.00;;
18917;SDS011;9591;52.742;13.650;2023-07-29T10:06:10;5.27;;;4.47;;
18917;SDS011;9591;52.742;13.650;2023-07-29T10:08:58;6.73;;;4.70;;
18917;SDS011;9591;52.742;13.650;2023-07-29T10:11:48;4.83;;;4.33;;
18917;SDS011;9591;52.742;13.650;2023-07-29T10:14:38;4.40;;;4.00;;
18917;SDS011;9591;52.742;13.650;2023-07-29T10:17:27;6.50;;;4.20;;
18917;SDS011;9591;52.742;13.650;2023-07-29T10:20:15;5.30;;;4.47;;
18917;SDS011;9591;52.742;13.650;2023-07-29T10:23:04;6.57;;;3.87;;
18917;SDS011;9591;52.742;13.650;2023-07-29T10:25:55;6.20;;;4.27;;
18917;SDS011;9591;52.742;13.650;2023-07-29T10:28:47;5.40;;;4.43;;
18917;SDS011;9591;52.742;13.650;2023-07-29T10:31:38;5.63;;;3.83;;
18917;SDS011;9591;52.742;13.650;2023-07-29T10:34:29;6.43;;;3.90;;
18917;SDS011;9591;52.742;13.650;2023-07-29T10:37:16;4.03;;;3.63;;
18917;SDS011;9591;52.742;13.650;2023-07-29T10:40:07;4.37;;;3.77;;
18917;SDS011;9591;52.742;13.650;2023-07-29T10:42:59;6.30;;;3.90;;
18917;SDS011;9591;52.742;13.650;2023-07-29T10:45:49;3.83;;;3.40;;
18917;SDS011;9591;52.742;13.650;2023-07-29T10:48:55;3.50;;;3.20;;
18917;SDS011;9591;52.742;13.650;2023-07-29T10:51:43;3.50;;;3.20;;
18917;SDS011;9591;52.742;13.650;2023-07-29T10:54:41;5.37;;;3.40;;
18917;SDS011;9591;52.742;13.650;2023-07-29T10:57:33;4.23;;;3.10;;
18917;SDS011;9591;52.742;13.650;2023-07-29T11:00:21;3.43;;;3.07;;
18917;SDS011;9591;52.742;13.650;2023-07-29T11:03:08;4.00;;;2.90;;
18917;SDS011;9591;52.742;13.650;2023-07-29T11:05:54;3.90;;;3.50;;
18917;SDS011;9591;52.742;13.650;2023-07-29T11:08:42;5.70;;;3.20;;
18917;SDS011;9591;52.742;13.650;2023-07-29T11:11:32;3.33;;;3.03;;
18917;SDS011;9591;52.742;13.650;2023-07-29T11:14:20;5.73;;;2.90;;
18917;SDS011;9591;52.742;13.650;2023-07-29T11:17:08;3.63;;;3.20;;
18917;SDS011;9591;52.742;13.650;2023-07-29T11:19:56;5.80;;;3.30;;
18917;SDS011;9591;52.742;13.650;2023-07-29T11:22:48;3.77;;;3.10;;
18917;SDS011;9591;52.742;13.650;2023-07-29T11:25:38;3.30;;;3.00;;
18917;SDS011;9591;52.742;13.650;2023-07-29T11:28:25;6.53;;;2.93;;
18917;SDS011;9591;52.742;13.650;2023-07-29T11:31:16;4.43;;;3.23;;
18917;SDS011;9591;52.742;13.650;2023-07-29T11:34:06;3.80;;;3.10;;
18917;SDS011;9591;52.742;13.650;2023-07-29T11:36:54;4.87;;;2.90;;
18917;SDS011;9591;52.742;13.650;2023-07-29T11:39:45;18.23;;;4.40;;
18917;SDS011;9591;52.742;13.650;2023-07-29T11:42:34;16.73;;;2.60;;
18917;SDS011;9591;52.742;13.650;2023-07-29T11:45:24;15.20;;;2.03;;
18917;SDS011;9591;52.742;13.650;2023-07-29T11:48:37;17.13;;;3.40;;
18917;SDS011;9591;52.742;13.650;2023-07-29T11:51:26;5.67;;;1.53;;
18917;SDS011;9591;52.742;13.650;2023-07-29T11:54:15;1.67;;;1.13;;
18917;SDS011;9591;52.742;13.650;2023-07-29T11:57:07;11.03;;;1.77;;
18917;SDS011;9591;52.742;13.650;2023-07-29T11:59:56;19.70;;;2.13;;
18917;SDS011;9591;52.742;13.650;2023-07-29T12:02:45;4.63;;;1.60;;
18917;SDS011;9591;52.742;13.650;2023-07-29T12:05:36;3.37;;;1.70;;
18917;SDS011;9591;52.742;13.650;2023-07-29T12:08:25;13.43;;;1.77;;
18917;SDS011;9591;52.742;13.650;2023-07-29T12:11:15;7.97;;;1.53;;
18917;SDS011;9591;52.742;13.650;2023-07-29T12:14:03;3.73;;;1.43;;
18917;SDS011;9591;52.742;13.650;2023-07-29T12:16:55;3.63;;;1.37;;
18917;SDS011;9591;52.742;13.650;2023-07-29T12:19:42;2.70;;;1.37;;
18917;SDS011;9591;52.742;13.650;2023-07-29T12:22:31;1.67;;;1.13;;
18917;SDS011;9591;52.742;13.650;2023-07-29T12:25:18;1.10;;;0.97;;
18917;SDS011;9591;52.742;13.650;2023-07-29T12:28:07;1.83;;;1.00;;
18917;SDS011;9591;52.742;13.650;2023-07-29T12:30:54;2.33;;;1.10;;
18917;SDS011;9591;52.742;13.650;2023-07-29T12:33:41;0.93;;;0.83;;
18917;SDS011;9591;52.742;13.650;2023-07-29T12:36:40;7.00;;;1.00;;
18917;SDS011;9591;52.742;13.650;2023-07-29T12:39:32;9.40;;;1.10;;
18917;SDS011;9591;52.742;13.650;2023-07-29T12:42:22;2.10;;;1.10;;
18917;SDS011;9591;52.742;13.650;2023-07-29T12:45:12;1.93;;;0.90;;
18917;SDS011;9591;52.742;13.650;2023-07-29T12:48:01;5.40;;;1.10;;
18917;SDS011;9591;52.742;13.650;2023-07-29T12:50:48;1.13;;;0.87;;
18917;SDS011;9591;52.742;13.650;2023-07-29T12:53:37;4.90;;;1.20;;
18917;SDS011;9591;52.742;13.650;2023-07-29T12:56:25;1.10;;;1.00;;
18917;SDS011;9591;52.742;13.650;2023-07-29T12:59:12;1.17;;;1.07;;
18917;SDS011;9591;52.742;13.650;2023-07-29T13:02:05;1.00;;;0.90;;
18917;SDS011;9591;52.742;13.650;2023-07-29T13:05:03;1.80;;;1.10;;
18917;SDS011;9591;52.742;13.650;2023-07-29T13:07:50;1.27;;;1.00;;
18917;SDS011;9591;52.742;13.650;2023-07-29T13:10:37;1.50;;;1.20;;
18917;SDS011;9591;52.742;13.650;2023-07-29T13:13:26;1.97;;;1.40;;
18917;SDS011;9591;52.742;13.650;2023-07-29T13:16:13;1.93;;;1.47;;
18917;SDS011;9591;52.742;13.650;2023-07-29T13:19:01;3.30;;;1.60;;
18917;SDS011;9591;52.742;13.650;2023-07-29T13:21:48;3.00;;;1.60;;
18917;SDS011;9591;52.742;13.650;2023-07-29T13:24:36;2.53;;;1.50;;
18917;SDS011;9591;52.742;13.650;2023-07-29T13:27:23;2.47;;;1.70;;
18917;SDS011;9591;52.742;13.650;2023-07-29T13:30:12;3.03;;;1.60;;
18917;SDS011;9591;52.742;13.650;2023-07-29T13:32:59;1.80;;;1.70;;
18917;SDS011;9591;52.742;13.650;2023-07-29T13:35:46;2.50;;;1.70;;
18917;SDS011;9591;52.742;13.650;2023-07-29T13:38:33;2.80;;;2.00;;
18917;SDS011;9591;52.742;13.650;2023-07-29T13:41:20;2.00;;;1.80;;
18917;SDS011;9591;52.742;13.650;2023-07-29T13:44:07;3.40;;;2.47;;
18917;SDS011;9591;52.742;13.650;2023-07-29T13:46:55;3.77;;;2.37;;
18917;SDS011;9591;52.742;13.650;2023-07-29T13:49:42;3.30;;;2.73;;
18917;SDS011;9591;52.742;13.650;2023-07-29T13:52:29;2.43;;;2.23;;
18917;SDS011;9591;52.742;13.650;2023-07-29T13:55:16;4.50;;;2.60;;
18917;SDS011;9591;52.742;13.650;2023-07-29T13:58:02;3.20;;;2.70;;
18917;SDS011;9591;52.742;13.650;2023-07-29T14:00:49;3.63;;;3.17;;
18917;SDS011;9591;52.742;13.650;2023-07-29T14:03:38;4.97;;;3.00;;
18917;SDS011;9591;52.742;13.650;2023-07-29T14:06:25;3.53;;;2.80;;
18917;SDS011;9591;52.742;13.650;2023-07-29T14:09:28;3.77;;;3.10;;
18917;SDS011;9591;52.742;13.650;2023-07-29T14:12:15;4.97;;;3.30;;
18917;SDS011;9591;52.742;13.650;2023-07-29T14:15:04;4.77;;;3.20;;
18917;SDS011;9591;52.742;13.650;2023-07-29T14:17:52;6.43;;;3.20;;
18917;SDS011;9591;52.742;13.650;2023-07-29T14:20:40;4.40;;;2.70;;
18917;SDS011;9591;52.742;13.650;2023-07-29T14:23:27;5.10;;;2.93;;
18917;SDS011;9591;52.742;13.650;2023-07-29T14:26:15;4.73;;;2.90;;
18917;SDS011;9591;52.742;13.650;2023-07-29T14:29:02;3.53;;;3.13;;
18917;SDS011;9591;52.742;13.650;2023-07-29T14:31:49;4.97;;;2.90;;
18917;SDS011;9591;52.742;13.650;2023-07-29T14:34:36;5.50;;;2.70;;
18917;SDS011;9591;52.742;13.650;2023-07-29T14:37:26;4.23;;;2.90;;
18917;SDS011;9591;52.742;13.650;2023-07-29T14:40:14;4.93;;;2.60;;
18917;SDS011;9591;52.742;13.650;2023-07-29T14:43:01;5.57;;;3.20;;
18917;SDS011;9591;52.742;13.650;2023-07-29T14:45:48;4.67;;;2.70;;
18917;SDS011;9591;52.742;13.650;2023-07-29T14:48:35;2.47;;;2.27;;
18917;SDS011;9591;52.742;13.650;2023-07-29T14:51:22;2.47;;;2.27;;
18917;SDS011;9591;52.742;13.650;2023-07-29T14:54:11;2.77;;;2.33;;
18917;SDS011;9591;52.742;13.650;2023-07-29T14:56:58;2.27;;;2.07;;
18917;SDS011;9591;52.742;13.650;2023-07-29T14:59:46;4.50;;;2.20;;
18917;SDS011;9591;52.742;13.650;2023-07-29T15:02:33;2.17;;;2.00;;
18917;SDS011;9591;52.742;13.650;2023-07-29T15:05:20;4.80;;;2.50;;
18917;SDS011;9591;52.742;13.650;2023-07-29T15:08:07;4.47;;;2.60;;
18917;SDS011;9591;52.742;13.650;2023-07-29T15:10:55;2.10;;;2.00;;
18917;SDS011;9591;52.742;13.650;2023-07-29T15:13:42;5.20;;;2.30;;
18917;SDS011;9591;52.742;13.650;2023-07-29T15:16:29;3.27;;;2.23;;
18917;SDS011;9591;52.742;13.650;2023-07-29T15:19:16;3.47;;;2.27;;
18917;SDS011;9591;52.742;13.650;2023-07-29T15:22:03;2.93;;;1.90;;
18917;SDS011;9591;52.742;13.650;2023-07-29T15:24:50;2.43;;;2.00;;
18917;SDS011;9591;52.742;13.650;2023-07-29T15:27:39;4.07;;;2.07;;
18917;SDS011;9591;52.742;13.650;2023-07-29T15:30:26;2.50;;;2.00;;
18917;SDS011;9591;52.742;13.650;2023-07-29T15:33:13;2.20;;;2.07;;
18917;SDS011;9591;52.742;13.650;2023-07-29T15:36:00;7.00;;;2.20;;
18917;SDS011;9591;52.742;13.650;2023-07-29T15:38:47;4.23;;;1.57;;
18917;SDS011;9591;52.742;13.650;2023-07-29T15:41:34;2.77;;;2.10;;
18917;SDS011;9591;52.742;13.650;2023-07-29T15:44:22;7.60;;;2.03;;
18917;SDS011;9591;52.742;13.650;2023-07-29T15:47:09;2.40;;;2.17;;
18917;SDS011;9591;52.742;13.650;2023-07-29T15:49:58;3.30;;;2.00;;
18917;SDS011;9591;52.742;13.650;2023-07-29T15:52:45;9.77;;;2.10;;
18917;SDS011;9591;52.742;13.650;2023-07-29T15:55:32;2.73;;;2.00;;
18917;SDS011;9591;52.742;13.650;2023-07-29T15:58:18;2.27;;;2.07;;
18917;SDS011;9591;52.742;13.650;2023-07-29T16:01:07;2.10;;;1.90;;
18917;SDS011;9591;52.742;13.650;2023-07-29T16:03:54;2.80;;;2.20;;
18917;SDS011;9591;52.742;13.650;2023-07-29T16:06:41;3.80;;;1.80;;
18917;SDS011;9591;52.742;13.650;2023-07-29T16:09:28;3.17;;;1.83;;
18917;SDS011;9591;52.742;13.650;2023-07-29T16:12:15;2.57;;;1.97;;
18917;SDS011;9591;52.742;13.650;2023-07-29T16:15:02;5.13;;;1.93;;
18917;SDS011;9591;52.742;13.650;2023-07-29T16:17:50;2.33;;;2.00;;
18917;SDS011;9591;52.742;13.650;2023-07-29T16:20:38;2.33;;;2.13;;
18917;SDS011;9591;52.742;13.650;2023-07-29T16:23:25;3.80;;;2.20;;
18917;SDS011;9591;52.742;13.650;2023-07-29T16:26:13;2.03;;;1.93;;
18917;SDS011;9591;52.742;13.650;2023-07-29T16:29:00;4.40;;;2.10;;
18917;SDS011;9591;52.742;13.650;2023-07-29T16:31:49;3.93;;;2.20;;
18917;SDS011;9591;52.742;13.650;2023-07-29T16:34:38;5.13;;;2.30;;
18917;SDS011;9591;52.742;13.650;2023-07-29T16:37:25;2.10;;;2.00;;
18917;SDS011;9591;52.742;13.650;2023-07-29T16:40:12;2.63;;;2.30;;
18917;SDS011;9591;52.742;13.650;2023-07-29T16:42:59;2.07;;;1.83;;
18917;SDS011;9591;52.742;13.650;2023-07-29T16:45:46;6.13;;;1.80;;
18917;SDS011;9591;52.742;13.650;2023-07-29T16:48:33;5.50;;;2.40;;
18917;SDS011;9591;52.742;13.650;2023-07-29T16:51:22;2.50;;;2.30;;